createdAt,value
2018-06-04T00:02:14.207Z,21.50
2018-06-04T00:04:42.429Z,21.50
2018-06-04T00:07:10.615Z,21.40
2018-06-04T00:09:38.919Z,21.40
2018-06-04T00:14:35.259Z,21.40
2018-06-04T00:17:03.473Z,21.40
2018-06-04T00:19:31.665Z,21.30
2018-06-04T00:21:59.871Z,21.30
2018-06-04T00:24:28.093Z,21.20
2018-06-04T00:26:56.308Z,21.30
2018-06-04T00:29:24.533Z,21.20
2018-06-04T00:31:52.824Z,21.20
2018-06-04T00:34:21.137Z,21.20
2018-06-04T00:36:49.351Z,21.10
2018-06-04T00:39:17.548Z,21.00
2018-06-04T00:41:45.808Z,20.90
2018-06-04T00:44:14.031Z,20.80
2018-06-04T00:49:10.355Z,20.60
2018-06-04T00:51:38.612Z,20.50
2018-06-04T00:54:06.885Z,20.50
2018-06-04T00:56:35.116Z,20.40
2018-06-04T00:59:03.398Z,20.30
2018-06-04T01:01:31.687Z,20.30
2018-06-04T01:03:59.972Z,20.30
2018-06-04T01:06:28.269Z,20.30
2018-06-04T01:08:56.560Z,20.30
2018-06-04T01:11:24.993Z,20.30
2018-06-04T01:13:53.220Z,20.30
2018-06-04T01:16:21.468Z,20.30
2018-06-04T01:18:49.694Z,20.30
2018-06-04T01:21:17.978Z,20.20
2018-06-04T01:23:46.223Z,20.20
2018-06-04T01:26:14.419Z,20.20
2018-06-04T01:28:42.692Z,20.10
2018-06-04T01:31:10.887Z,20.10
2018-06-04T01:33:39.083Z,20.10
2018-06-04T01:36:07.270Z,20.10
2018-06-04T01:38:35.474Z,20.10
2018-06-04T01:41:03.697Z,20.00
2018-06-04T01:43:31.875Z,20.00
2018-06-04T01:46:00.071Z,20.00
2018-06-04T01:48:28.265Z,20.00
2018-06-04T01:50:56.448Z,20.00
2018-06-04T01:53:24.616Z,20.00
2018-06-04T01:55:52.781Z,20.00
2018-06-04T01:58:20.974Z,20.00
2018-06-04T02:00:49.347Z,20.00
2018-06-04T02:03:17.603Z,20.00
2018-06-04T02:05:45.773Z,20.00
2018-06-04T02:08:13.952Z,19.90
2018-06-04T02:10:42.219Z,19.90
2018-06-04T02:13:10.384Z,19.90
2018-06-04T02:15:38.567Z,19.80
2018-06-04T02:18:06.759Z,19.80
2018-06-04T02:20:34.928Z,19.70
2018-06-04T02:23:03.159Z,19.70
2018-06-04T02:25:31.347Z,19.60
2018-06-04T02:27:59.558Z,19.60
2018-06-04T02:30:27.732Z,19.50
2018-06-04T02:32:55.973Z,19.40
2018-06-04T02:35:24.476Z,19.40
2018-06-04T02:37:52.663Z,19.40
2018-06-04T02:40:20.855Z,19.40
2018-06-04T02:42:49.057Z,19.40
2018-06-04T02:45:17.282Z,19.40
2018-06-04T02:47:45.448Z,19.30
2018-06-04T02:50:13.683Z,19.30
2018-06-04T02:52:41.866Z,19.20
2018-06-04T02:55:10.118Z,19.20
2018-06-04T02:57:38.362Z,19.30
2018-06-04T03:00:06.566Z,19.20
2018-06-04T03:02:34.834Z,19.20
2018-06-04T03:05:03.106Z,19.20
2018-06-04T03:07:31.300Z,19.10
2018-06-04T03:09:59.469Z,19.10
2018-06-04T03:12:27.666Z,19.10
2018-06-04T03:14:55.852Z,19.00
2018-06-04T03:17:24.061Z,19.00
2018-06-04T03:19:52.222Z,19.10
2018-06-04T03:22:20.487Z,19.10
2018-06-04T03:24:48.685Z,19.10
2018-06-04T03:27:16.863Z,19.10
2018-06-04T03:29:45.081Z,19.10
2018-06-04T03:34:41.175Z,19.10
2018-06-04T03:37:09.364Z,19.00
2018-06-04T03:42:01.838Z,19.00
2018-06-04T03:44:30.032Z,19.00
2018-06-04T03:46:58.211Z,19.00
2018-06-04T03:49:26.380Z,19.00
2018-06-04T03:51:54.622Z,19.00
2018-06-04T03:54:22.882Z,19.00
2018-06-04T03:56:51.112Z,19.10
2018-06-04T03:59:19.344Z,19.00
2018-06-04T04:01:47.574Z,19.00
2018-06-04T04:04:15.758Z,18.90
2018-06-04T04:06:43.985Z,18.90
2018-06-04T04:09:12.279Z,18.90
2018-06-04T04:11:40.562Z,18.90
2018-06-04T04:14:08.740Z,18.90
2018-06-04T04:16:38.912Z,18.90
2018-06-04T04:19:08.147Z,19.00
2018-06-04T04:21:36.412Z,19.00
2018-06-04T04:24:04.636Z,19.10
2018-06-04T04:26:32.824Z,19.20
2018-06-04T04:29:01.003Z,19.30
2018-06-04T04:31:29.419Z,19.40
2018-06-04T04:33:57.589Z,19.40
2018-06-04T04:36:25.756Z,19.60
2018-06-04T04:38:53.960Z,19.70
2018-06-04T04:41:22.193Z,19.80
2018-06-04T04:43:50.413Z,19.90
2018-06-04T04:46:18.599Z,20.00
2018-06-04T04:51:15.003Z,20.30
2018-06-04T04:53:43.160Z,20.50
2018-06-04T04:56:11.426Z,20.60
2018-06-04T04:58:39.623Z,20.70
2018-06-04T05:01:07.787Z,20.80
2018-06-04T05:06:03.924Z,20.80
2018-06-04T05:08:32.140Z,20.90
2018-06-04T05:11:00.315Z,20.90
2018-06-04T05:13:28.502Z,21.00
2018-06-04T05:15:56.695Z,21.10
2018-06-04T05:18:24.933Z,21.10
2018-06-04T05:23:21.064Z,21.10
2018-06-04T05:25:49.239Z,21.20
2018-06-04T05:28:17.427Z,21.20
2018-06-04T05:30:45.605Z,21.20
2018-06-04T05:33:13.820Z,21.30
2018-06-04T05:35:42.201Z,21.30
2018-06-04T05:38:10.442Z,21.30
2018-06-04T05:40:38.689Z,21.30
2018-06-04T05:43:06.887Z,21.40
2018-06-04T05:45:35.093Z,21.40
2018-06-04T05:48:03.557Z,21.50
2018-06-04T05:50:31.805Z,21.60
2018-06-04T05:53:00.070Z,21.60
2018-06-04T05:55:28.248Z,21.60
2018-06-04T05:57:56.445Z,21.60
2018-06-04T06:00:24.616Z,21.60
2018-06-04T06:02:52.917Z,21.70
2018-06-04T06:05:21.063Z,21.70
2018-06-04T06:07:49.264Z,21.80
2018-06-04T06:10:17.443Z,21.90
2018-06-04T06:12:45.653Z,22.00
2018-06-04T06:15:13.841Z,22.00
2018-06-04T06:17:42.011Z,22.10
2018-06-04T06:20:10.176Z,22.20
2018-06-04T06:22:38.382Z,22.30
2018-06-04T06:25:06.625Z,22.40
2018-06-04T06:27:34.801Z,22.50
2018-06-04T06:30:03.008Z,22.50
2018-06-04T06:32:31.237Z,22.60
2018-06-04T06:34:59.533Z,22.60
2018-06-04T06:37:27.799Z,22.70
2018-06-04T06:39:55.987Z,22.90
2018-06-04T06:42:24.165Z,23.00
2018-06-04T06:44:52.396Z,23.20
2018-06-04T06:47:20.646Z,23.30
2018-06-04T06:49:48.831Z,23.50
2018-06-04T06:52:17.083Z,23.70
2018-06-04T06:54:45.263Z,24.00
2018-06-04T06:57:13.525Z,24.20
2018-06-04T06:59:41.702Z,24.40
2018-06-04T07:02:09.885Z,24.70
2018-06-04T07:04:38.154Z,24.90
2018-06-04T07:09:34.373Z,25.30
2018-06-04T07:12:02.564Z,25.40
2018-06-04T07:14:30.793Z,25.50
2018-06-04T07:16:59.079Z,25.60
2018-06-04T07:19:27.283Z,25.60
2018-06-04T07:21:55.492Z,25.60
2018-06-04T07:24:23.677Z,25.40
2018-06-04T07:26:51.901Z,25.30
2018-06-04T07:29:20.135Z,25.30
2018-06-04T07:31:48.384Z,25.20
2018-06-04T07:34:16.561Z,25.00
2018-06-04T07:36:44.740Z,24.80
2018-06-04T07:39:12.925Z,24.80
2018-06-04T07:41:41.168Z,24.80
2018-06-04T07:44:09.723Z,24.90
2018-06-04T07:46:37.955Z,25.00
2018-06-04T07:49:06.154Z,25.00
2018-06-04T07:51:34.433Z,25.10
2018-06-04T07:54:02.627Z,25.20
2018-06-04T07:56:30.813Z,25.30
2018-06-04T08:01:27.204Z,25.50
2018-06-04T08:03:55.407Z,25.60
2018-06-04T08:06:23.614Z,25.60
2018-06-04T08:08:51.775Z,25.80
2018-06-04T08:11:20.037Z,25.90
2018-06-04T08:13:48.211Z,26.00
2018-06-04T08:16:16.384Z,26.20
2018-06-04T08:18:44.658Z,26.30
2018-06-04T08:21:12.883Z,26.40
2018-06-04T08:23:41.069Z,26.50
2018-06-04T08:26:09.281Z,26.60
2018-06-04T08:28:37.463Z,26.70
2018-06-04T08:31:05.662Z,26.70
2018-06-04T08:33:33.829Z,26.80
2018-06-04T08:36:02.053Z,26.80
2018-06-04T08:38:30.302Z,26.90
2018-06-04T08:40:58.428Z,27.00
2018-06-04T08:43:26.616Z,27.10
2018-06-04T08:45:54.843Z,27.20
2018-06-04T08:48:23.066Z,27.30
2018-06-04T08:50:51.232Z,27.30
2018-06-04T08:53:19.422Z,27.40
2018-06-04T08:55:47.623Z,27.50
2018-06-04T08:58:15.795Z,27.50
2018-06-04T09:03:12.591Z,27.70
2018-06-04T09:05:40.784Z,27.80
2018-06-04T09:08:08.955Z,27.90
2018-06-04T09:10:37.140Z,27.90
2018-06-04T09:13:05.624Z,27.90
2018-06-04T09:15:33.807Z,28.10
2018-06-04T09:18:02.030Z,28.20
2018-06-04T09:20:30.249Z,28.40
2018-06-04T09:22:58.434Z,28.40
2018-06-04T09:25:26.631Z,28.70
2018-06-04T09:27:54.813Z,28.80
2018-06-04T09:30:23.074Z,28.90
2018-06-04T09:32:51.293Z,28.90
2018-06-04T09:35:19.506Z,28.90
2018-06-04T09:37:47.712Z,29.10
2018-06-04T09:40:15.890Z,29.30
2018-06-04T09:42:44.071Z,29.40
2018-06-04T09:45:12.256Z,29.70
2018-06-04T09:47:40.447Z,29.90
2018-06-04T09:50:08.636Z,30.20
2018-06-04T09:52:36.887Z,30.30
2018-06-04T09:55:05.119Z,30.30
2018-06-04T09:57:33.324Z,30.40
2018-06-04T10:00:01.525Z,30.50
2018-06-04T10:02:29.773Z,30.70
2018-06-04T10:04:57.955Z,30.90
2018-06-04T10:07:26.164Z,31.10
2018-06-04T10:09:54.393Z,31.30
2018-06-04T10:12:22.582Z,31.60
2018-06-04T10:14:50.767Z,32.10
2018-06-04T10:17:19.046Z,32.40
2018-06-04T10:19:47.351Z,32.70
2018-06-04T10:22:15.595Z,33.00
2018-06-04T10:24:43.767Z,33.40
2018-06-04T10:27:12.038Z,33.70
2018-06-04T10:29:40.193Z,34.30
2018-06-04T10:32:08.372Z,35.10
2018-06-04T10:34:36.543Z,35.80
2018-06-04T10:37:04.716Z,36.10
2018-06-04T10:39:32.905Z,36.30
2018-06-04T10:42:01.077Z,36.60
2018-06-04T10:44:29.268Z,36.80
2018-06-04T10:46:57.463Z,37.20
2018-06-04T10:49:25.639Z,37.80
2018-06-04T10:51:53.841Z,38.50
2018-06-04T10:54:22.027Z,39.00
2018-06-04T10:56:50.220Z,38.90
2018-06-04T10:59:18.397Z,38.80
2018-06-04T11:01:46.569Z,38.50
2018-06-04T11:04:14.806Z,38.60
2018-06-04T11:06:43.006Z,38.80
2018-06-04T11:09:11.972Z,38.80
2018-06-04T11:11:40.214Z,39.20
2018-06-04T11:14:08.385Z,39.40
2018-06-04T11:19:04.589Z,39.80
2018-06-04T11:21:32.836Z,40.30
2018-06-04T11:24:01.036Z,40.50
2018-06-04T11:26:29.212Z,40.50
2018-06-04T11:28:57.455Z,40.50
2018-06-04T11:31:25.862Z,40.80
2018-06-04T11:33:54.039Z,41.20
2018-06-04T11:36:22.221Z,41.40
2018-06-04T11:38:50.446Z,41.50
2018-06-04T11:41:18.738Z,41.40
2018-06-04T11:43:46.927Z,41.50
2018-06-04T11:46:15.050Z,41.80
2018-06-04T11:48:43.314Z,41.80
2018-06-04T11:51:11.499Z,42.10
2018-06-04T11:53:39.884Z,42.50
2018-06-04T11:56:08.072Z,42.60
2018-06-04T11:58:36.258Z,42.10
2018-06-04T12:01:04.479Z,41.90
2018-06-04T12:03:32.652Z,42.00
2018-06-04T12:06:00.844Z,42.20
2018-06-04T12:08:29.035Z,42.50
2018-06-04T12:10:57.266Z,42.60
2018-06-04T12:13:25.466Z,42.60
2018-06-04T12:15:53.653Z,42.50
2018-06-04T12:18:21.903Z,42.40
2018-06-04T12:20:50.084Z,42.40
2018-06-04T12:23:18.345Z,42.50
2018-06-04T12:25:46.555Z,42.50
2018-06-04T12:28:14.768Z,42.80
2018-06-04T12:30:42.930Z,42.40
2018-06-04T12:33:11.135Z,42.30
2018-06-04T12:35:39.332Z,41.50
2018-06-04T12:38:07.491Z,40.50
2018-06-04T12:40:35.684Z,39.30
2018-06-04T12:43:03.851Z,38.10
2018-06-04T12:45:32.032Z,37.00
2018-06-04T12:50:28.673Z,35.20
2018-06-04T12:52:56.854Z,35.30
2018-06-04T12:55:25.077Z,36.30
2018-06-04T12:57:53.612Z,37.50
2018-06-04T13:00:21.799Z,38.80
2018-06-04T13:02:49.978Z,39.50
2018-06-04T13:05:18.158Z,40.10
2018-06-04T13:12:42.329Z,40.60
2018-06-04T13:15:10.515Z,41.20
2018-06-04T13:17:38.757Z,41.70
2018-06-04T13:22:35.064Z,41.20
2018-06-04T13:25:03.300Z,40.70
2018-06-04T13:27:31.542Z,40.50
2018-06-04T13:29:59.807Z,40.90
2018-06-04T13:32:27.983Z,41.20
2018-06-04T13:34:56.180Z,41.20
2018-06-04T13:37:24.365Z,40.70
2018-06-04T13:39:52.551Z,40.40
2018-06-04T13:42:20.744Z,40.60
2018-06-04T13:44:48.931Z,41.10
2018-06-04T13:47:17.118Z,41.70
2018-06-04T13:49:45.303Z,41.90
2018-06-04T13:52:13.503Z,41.60
2018-06-04T13:54:41.669Z,40.90
2018-06-04T13:57:09.888Z,40.70
2018-06-04T13:59:38.061Z,40.60
2018-06-04T14:02:06.409Z,40.30
2018-06-04T14:04:34.612Z,39.80
2018-06-04T14:07:02.804Z,39.20
2018-06-04T14:09:31.000Z,38.90
2018-06-04T14:11:59.242Z,39.00
2018-06-04T14:14:27.494Z,39.00
2018-06-04T14:16:55.689Z,38.90
2018-06-04T14:19:23.871Z,38.80
2018-06-04T14:21:52.056Z,38.50
2018-06-04T14:24:20.341Z,38.10
2018-06-04T14:26:48.559Z,37.50
2018-06-04T14:29:16.748Z,37.00
2018-06-04T14:31:44.936Z,36.70
2018-06-04T14:34:13.112Z,36.40
2018-06-04T14:39:10.063Z,35.80
2018-06-04T14:41:38.222Z,35.50
2018-06-04T14:44:06.432Z,35.40
2018-06-04T14:46:34.602Z,35.30
2018-06-04T14:49:02.950Z,35.20
2018-06-04T14:51:31.179Z,35.20
2018-06-04T14:53:59.357Z,35.00
2018-06-04T14:56:27.637Z,34.70
2018-06-04T14:58:55.793Z,34.40
2018-06-04T15:01:24.155Z,34.20
2018-06-04T15:03:52.314Z,34.00
2018-06-04T15:06:20.512Z,33.90
2018-06-04T15:08:48.700Z,33.90
2018-06-04T15:11:17.673Z,33.80
2018-06-04T15:13:45.856Z,33.80
2018-06-04T15:16:14.059Z,33.60
2018-06-04T15:18:42.313Z,33.50
2018-06-04T15:21:10.774Z,33.50
2018-06-04T15:23:38.948Z,33.50
2018-06-04T15:26:07.130Z,33.40
2018-06-04T15:28:35.294Z,33.30
2018-06-04T15:33:31.428Z,33.10
2018-06-04T15:35:59.717Z,33.00
2018-06-04T15:38:28.002Z,32.90
2018-06-04T15:40:57.836Z,32.80
2018-06-04T15:43:26.146Z,32.80
2018-06-04T15:45:54.436Z,32.90
2018-06-04T15:48:25.959Z,32.90
2018-06-04T15:50:54.570Z,32.90
2018-06-04T15:53:22.960Z,32.90
2018-06-04T15:55:51.244Z,32.90
2018-06-04T15:58:19.491Z,32.90
2018-06-04T16:00:47.782Z,32.90
2018-06-04T16:03:15.982Z,32.80
2018-06-04T16:05:44.219Z,32.50
2018-06-04T16:08:12.423Z,32.40
2018-06-04T16:10:40.805Z,32.30
2018-06-04T16:13:09.056Z,32.20
2018-06-04T16:15:37.294Z,32.20
2018-06-04T16:18:05.554Z,32.10
2018-06-04T16:20:33.771Z,32.10
2018-06-04T16:23:02.741Z,32.00
2018-06-04T16:25:31.754Z,32.00
2018-06-04T16:28:00.037Z,32.20
2018-06-04T16:30:28.355Z,32.20
2018-06-04T16:32:57.227Z,32.10
2018-06-04T16:35:25.988Z,32.10
2018-06-04T16:37:54.187Z,32.10
2018-06-04T16:40:22.412Z,32.00
2018-06-04T16:42:50.695Z,32.00
2018-06-04T16:47:47.523Z,31.90
2018-06-04T16:50:15.903Z,31.90
2018-06-04T16:52:44.130Z,31.80
2018-06-04T16:55:12.377Z,31.80
2018-06-04T16:57:40.590Z,31.80
2018-06-04T17:02:37.619Z,31.50
2018-06-04T17:05:06.209Z,31.50
2018-06-04T17:07:34.366Z,31.50
2018-06-04T17:10:02.657Z,31.40
2018-06-04T17:12:30.922Z,31.40
2018-06-04T17:14:59.235Z,31.30
2018-06-04T17:17:27.442Z,31.30
2018-06-04T17:19:57.255Z,31.20
2018-06-04T17:22:25.561Z,31.10
2018-06-04T17:24:53.762Z,31.10
2018-06-04T17:27:22.535Z,31.00
2018-06-04T17:29:50.950Z,31.00
2018-06-04T17:32:19.147Z,31.00
2018-06-04T17:34:47.383Z,31.00
2018-06-04T17:37:15.582Z,30.80
2018-06-04T17:42:12.048Z,30.70
2018-06-04T17:44:40.254Z,30.60
2018-06-04T17:47:08.463Z,30.60
2018-06-04T17:49:36.728Z,30.60
2018-06-04T17:52:04.912Z,30.60
2018-06-04T17:54:33.111Z,30.60
2018-06-04T17:59:29.458Z,30.50
2018-06-04T18:01:57.654Z,30.50
2018-06-04T18:04:26.028Z,30.40
2018-06-04T18:06:54.227Z,30.30
2018-06-04T18:09:22.583Z,30.30
2018-06-04T18:11:51.057Z,30.20
2018-06-04T18:16:47.166Z,30.10
2018-06-04T18:19:15.402Z,30.10
2018-06-04T18:21:43.656Z,30.00
2018-06-04T18:24:12.450Z,29.80
2018-06-04T18:26:41.356Z,29.60
2018-06-04T18:29:09.605Z,29.40
2018-06-04T18:31:37.864Z,29.20
2018-06-04T18:34:06.063Z,28.90
2018-06-04T18:36:34.259Z,28.80
2018-06-04T18:39:03.249Z,28.60
2018-06-04T18:41:31.669Z,28.40
2018-06-04T18:43:59.881Z,28.30
2018-06-04T18:46:28.099Z,28.20
2018-06-04T18:48:56.346Z,28.10
2018-06-04T18:51:24.618Z,28.00
2018-06-04T18:53:52.808Z,27.90
2018-06-04T18:56:21.004Z,27.70
2018-06-04T18:58:49.203Z,27.60
2018-06-04T19:01:17.480Z,27.50
2018-06-04T19:03:45.683Z,27.40
2018-06-04T19:06:13.883Z,27.30
2018-06-04T19:08:42.198Z,27.20
2018-06-04T19:11:10.303Z,27.10
2018-06-04T19:13:38.545Z,27.00
2018-06-04T19:16:06.724Z,26.90
2018-06-04T19:18:34.923Z,26.70
2018-06-04T19:21:03.168Z,26.70
2018-06-04T19:23:31.353Z,26.60
2018-06-04T19:25:59.596Z,26.50
2018-06-04T19:28:27.779Z,26.40
2018-06-04T19:30:56.238Z,26.30
2018-06-04T19:33:24.443Z,26.30
2018-06-04T19:35:52.642Z,26.20
2018-06-04T19:38:20.828Z,26.20
2018-06-04T19:40:49.028Z,26.10
2018-06-04T19:43:17.219Z,26.10
2018-06-04T19:45:45.448Z,26.00
2018-06-04T19:48:13.634Z,25.90
2018-06-04T19:50:41.823Z,25.80
2018-06-04T19:53:10.012Z,25.80
2018-06-04T19:55:38.200Z,25.70
2018-06-04T19:58:06.474Z,25.60
2018-06-04T20:00:34.631Z,25.50
2018-06-04T20:03:02.877Z,25.40
2018-06-04T20:05:31.087Z,25.40
2018-06-04T20:07:59.334Z,25.30
2018-06-04T20:10:27.604Z,25.20
2018-06-04T20:12:55.856Z,25.20
2018-06-04T20:15:24.043Z,25.20
2018-06-04T20:17:52.235Z,25.10
2018-06-04T20:20:20.438Z,25.00
2018-06-04T20:22:48.622Z,25.00
2018-06-04T20:25:16.803Z,25.00
2018-06-04T20:27:45.030Z,25.00
2018-06-04T20:30:13.236Z,24.90
2018-06-04T20:32:41.478Z,24.90
2018-06-04T20:35:09.690Z,24.90
2018-06-04T20:37:37.906Z,24.80
2018-06-04T20:40:06.090Z,24.80
2018-06-04T20:42:34.344Z,24.80
2018-06-04T20:45:02.606Z,24.70
2018-06-04T20:47:30.799Z,24.70
2018-06-04T20:49:58.987Z,24.70
2018-06-04T20:52:27.257Z,24.60
2018-06-04T20:54:55.439Z,24.60
2018-06-04T20:57:23.627Z,24.60
2018-06-04T20:59:51.826Z,24.60
2018-06-04T21:02:20.082Z,24.60
2018-06-04T21:04:48.346Z,24.60
2018-06-04T21:07:16.528Z,24.60
2018-06-04T21:09:44.731Z,24.60
2018-06-04T21:12:12.981Z,24.50
2018-06-04T21:14:41.242Z,24.60
2018-06-04T21:17:09.431Z,24.50
2018-06-04T21:19:37.694Z,24.50
2018-06-04T21:22:06.066Z,24.50
2018-06-04T21:27:02.369Z,24.40
2018-06-04T21:29:30.638Z,24.40
2018-06-04T21:31:58.873Z,24.40
2018-06-04T21:34:27.062Z,24.40
2018-06-04T21:39:23.258Z,24.30
2018-06-04T21:41:51.464Z,24.30
2018-06-04T21:44:19.705Z,24.30
2018-06-04T21:46:47.889Z,24.20
2018-06-04T21:49:18.956Z,24.20
2018-06-04T21:51:47.436Z,24.20
2018-06-04T21:54:15.726Z,24.20
2018-06-04T21:56:43.976Z,24.10
2018-06-04T21:59:12.241Z,24.00
2018-06-04T22:01:40.498Z,24.00
2018-06-04T22:04:08.723Z,24.00
2018-06-04T22:06:36.903Z,24.00
2018-06-04T22:09:07.710Z,23.90
2018-06-04T22:11:36.091Z,24.00
2018-06-04T22:14:04.778Z,24.00
2018-06-04T22:16:32.991Z,24.00
2018-06-04T22:19:01.183Z,24.00
2018-06-04T22:21:29.410Z,23.90
2018-06-04T22:23:57.638Z,23.90
2018-06-04T22:26:25.855Z,23.80
2018-06-04T22:28:54.127Z,23.80
2018-06-04T22:31:22.358Z,23.80
2018-06-04T22:33:50.549Z,23.80
2018-06-04T22:36:18.745Z,23.70
2018-06-04T22:38:46.927Z,23.70
2018-06-04T22:41:15.117Z,23.60
2018-06-04T22:43:43.311Z,23.60
2018-06-04T22:46:11.669Z,23.50
2018-06-04T22:48:39.887Z,23.50
2018-06-04T22:51:08.158Z,23.50
2018-06-04T22:53:36.356Z,23.40
2018-06-04T22:56:04.555Z,23.40
2018-06-04T22:58:32.824Z,23.40
2018-06-04T23:01:00.996Z,23.40
2018-06-04T23:03:29.171Z,23.30
2018-06-04T23:05:57.356Z,23.30
2018-06-04T23:08:25.561Z,23.30
2018-06-04T23:10:54.008Z,23.30
2018-06-04T23:13:22.247Z,23.20
2018-06-04T23:15:50.463Z,23.20
2018-06-04T23:18:18.714Z,23.20
2018-06-04T23:20:46.899Z,23.20
2018-06-04T23:23:15.114Z,23.20
2018-06-04T23:28:11.467Z,23.20
2018-06-04T23:30:39.663Z,23.20
2018-06-04T23:33:08.170Z,23.10
2018-06-04T23:35:36.370Z,23.10
2018-06-04T23:38:04.627Z,23.10
2018-06-04T23:40:32.896Z,23.10
2018-06-04T23:43:01.131Z,23.10
2018-06-04T23:45:29.320Z,23.10
2018-06-04T23:47:57.509Z,23.00
2018-06-04T23:52:54.240Z,23.00
2018-06-04T23:55:22.431Z,23.00
2018-06-04T23:57:50.624Z,23.00
